Time;durP1;ratioP1;P1;durP2;ratioP2;P2;SDS_P1;SDS_P2;PMS_P1;PMS_P2;Temp;Humidity;BMP_temperature;BMP_pressure;BME280_temperature;BME280_humidity;BME280_pressure;Samples;Min_cycle;Max_cycle;Signal;HPM_P1;HPM_P2
2022/08/03 00:01:49;;;;;;;5.63;5.13;;;;;;;21.49;72.77;98198.41;4216138;28;20658;-80
2022/08/03 00:03:53;;;;;;;6.50;5.70;;;;;;;21.47;73.99;98190.59;4207050;28;20639;-81
2022/08/03 00:05:56;;;;;;;6.77;5.90;;;;;;;21.45;73.24;98189.94;4209442;28;20640;-80
2022/08/03 00:08:08;;;;;;;6.27;5.63;;;;;;;21.41;73.89;98193.91;4210748;28;20735;-80
2022/08/03 00:10:11;;;;;;;6.57;5.63;;;;;;;21.38;73.61;98186.28;4213838;28;21179;-80
2022/08/03 00:12:14;;;;;;;6.13;5.53;;;;;;;21.33;74.45;98193.94;4207952;28;20726;-80
2022/08/03 00:14:17;;;;;;;7.10;5.47;;;;;;;21.31;74.92;98193.25;4222927;27;20629;-80
2022/08/03 00:16:21;;;;;;;6.93;5.40;;;;;;;21.28;73.98;98195.41;4227808;28;20636;-81
2022/08/03 00:18:25;;;;;;;6.20;5.70;;;;;;;21.26;75.17;98193.91;4210866;28;21185;-80
2022/08/03 00:20:28;;;;;;;6.10;5.50;;;;;;;21.22;74.75;98188.13;4214544;28;20632;-80
2022/08/03 00:22:31;;;;;;;5.83;5.23;;;;;;;21.20;74.84;98197.25;4212994;28;20632;-80
2022/08/03 00:24:36;;;;;;;6.07;5.47;;;;;;;21.18;73.83;98185.97;4208647;28;20642;-80
2022/08/03 00:26:39;;;;;;;6.00;5.40;;;;;;;21.18;74.86;98185.97;4212307;28;21534;-80
2022/08/03 00:28:42;;;;;;;6.80;6.00;;;;;;;21.17;73.75;98193.13;4198915;28;20640;-80
2022/08/03 00:30:45;;;;;;;7.50;5.50;;;;;;;21.14;73.87;98188.13;4208463;28;20637;-80
2022/08/03 00:32:49;;;;;;;6.47;5.87;;;;;;;21.12;75.64;98189.28;4224321;27;21242;-80
2022/08/03 00:34:52;;;;;;;6.03;5.50;;;;;;;21.10;75.25;98188.66;4190450;28;20684;-81
2022/08/03 00:37:01;;;;;;;6.73;5.90;;;;;;;21.07;75.00;98181.84;4195135;28;21204;-81
2022/08/03 00:39:04;;;;;;;6.13;5.33;;;;;;;21.04;74.26;98178.69;4198066;28;20641;-80
2022/08/03 00:41:08;;;;;;;6.87;5.10;;;;;;;20.98;75.04;98179.38;4200573;28;20683;-80
2022/08/03 00:43:12;;;;;;;6.93;5.40;;;;;;;20.90;74.46;98184.69;4217710;28;20729;-80
2022/08/03 00:45:15;;;;;;;6.60;5.70;;;;;;;20.80;74.90;98189.31;4219234;27;20645;-80
2022/08/03 00:47:18;;;;;;;6.33;5.67;;;;;;;20.73;75.47;98180.34;4223025;27;20635;-80
2022/08/03 00:49:21;;;;;;;6.10;5.50;;;;;;;20.68;76.49;98176.53;4196453;28;20727;-80
2022/08/03 00:51:25;;;;;;;6.70;6.00;;;;;;;20.64;76.36;98183.97;4205116;28;20657;-80
2022/08/03 00:53:28;;;;;;;6.20;5.40;;;;;;;20.65;75.97;98172.34;4214623;28;20636;-80
2022/08/03 00:55:32;;;;;;;5.90;5.30;;;;;;;20.64;75.73;98178.69;4211858;28;20627;-81
2022/08/03 00:57:37;;;;;;;6.50;5.57;;;;;;;20.66;75.00;98187.28;4206356;28;20646;-80
2022/08/03 00:59:40;;;;;;;5.70;5.10;;;;;;;20.67;76.29;98177.50;4211943;28;20661;-80
2022/08/03 01:01:43;;;;;;;7.93;5.60;;;;;;;20.69;75.71;98181.69;4227036;28;21073;-80
2022/08/03 01:03:46;;;;;;;5.93;5.30;;;;;;;20.70;75.11;98183.31;4207918;28;20650;-81
2022/08/03 01:05:53;;;;;;;7.10;5.23;;;;;;;20.69;75.07;98187.00;4208131;28;20630;-81
2022/08/03 01:08:03;;;;;;;6.67;6.07;;;;;;;20.68;75.36;98179.19;4225276;28;21146;-80
2022/08/03 01:10:12;;;;;;;6.57;5.87;;;;;;;20.65;76.47;98180.31;4220241;28;20620;-80
2022/08/03 01:12:22;;;;;;;7.40;5.80;;;;;;;20.64;75.62;98183.13;4202671;28;20652;-81
2022/08/03 01:14:32;;;;;;;6.07;5.47;;;;;;;20.64;76.85;98183.13;4211751;28;20634;-80
2022/08/03 01:16:40;;;;;;;7.07;5.90;;;;;;;20.64;76.16;98185.78;4203022;28;20631;-80
2022/08/03 01:18:47;;;;;;;5.90;5.30;;;;;;;20.62;76.75;98180.63;4207202;28;20634;-80
2022/08/03 01:20:53;;;;;;;8.50;6.10;;;;;;;20.62;76.01;98180.63;4190153;28;20636;-81
2022/08/03 01:23:33;;;;;;;6.27;5.10;;;;;;;20.61;77.35;98172.84;4191685;28;20624;-80
2022/08/03 01:25:45;;;;;;;7.83;6.30;;;;;;;20.58;75.62;98179.34;4211486;28;20648;-80
2022/08/03 01:28:04;;;;;;;9.77;6.40;;;;;;;20.55;76.55;98178.81;4204727;28;20636;-80
2022/08/03 01:30:10;;;;;;;6.13;5.53;;;;;;;20.53;76.36;98168.38;4221484;27;21217;-80
2022/08/03 01:32:16;;;;;;;10.13;5.60;;;;;;;20.50;76.72;98171.34;4191615;28;21179;-80
2022/08/03 01:34:45;;;;;;;6.90;5.70;;;;;;;20.46;76.30;98175.34;4207652;28;21009;-80
2022/08/03 01:36:51;;;;;;;5.90;5.40;;;;;;;20.45;77.77;98173.66;4201004;28;20978;-80
2022/08/03 01:38:59;;;;;;;6.23;5.63;;;;;;;20.41;77.78;98176.81;4220988;28;20711;-80
2022/08/03 01:41:05;;;;;;;6.83;6.17;;;;;;;20.39;76.75;98170.84;4192344;28;20638;-81
2022/08/03 01:43:09;;;;;;;6.97;6.17;;;;;;;20.37;76.63;98165.72;4205064;28;20677;-80
2022/08/03 01:45:16;;;;;;;10.80;5.70;;;;;;;20.36;76.46;98158.75;4208656;28;20623;-81
2022/08/03 01:47:20;;;;;;;5.80;5.30;;;;;;;20.34;76.62;98162.53;4222681;28;20673;-80
2022/08/03 01:49:24;;;;;;;7.73;6.50;;;;;;;20.34;77.62;98160.75;4207174;28;20637;-80
2022/08/03 01:51:29;;;;;;;7.80;5.53;;;;;;;20.33;76.77;98159.06;4197492;28;21282;-81
2022/08/03 01:53:54;;;;;;;6.63;5.90;;;;;;;20.32;78.38;98161.06;4212475;28;20610;-81
2022/08/03 01:55:57;;;;;;;6.40;5.80;;;;;;;20.28;77.15;98160.53;4205589;28;20642;-80
2022/08/03 01:58:03;;;;;;;6.47;5.87;;;;;;;20.27;77.59;98160.72;4200503;28;20646;-80
2022/08/03 02:00:10;;;;;;;8.20;5.87;;;;;;;20.23;77.59;98156.75;4190880;28;21276;-81
2022/08/03 02:02:16;;;;;;;8.80;5.77;;;;;;;20.20;78.11;98157.06;4205859;28;20618;-80
2022/08/03 02:04:38;;;;;;;6.27;5.70;;;;;;;20.18;77.74;98162.53;4211816;28;21020;-80
2022/08/03 02:06:42;;;;;;;6.70;6.00;;;;;;;20.16;76.82;98161.00;4218870;28;20661;-81
2022/08/03 02:09:03;;;;;;;7.80;6.30;;;;;;;20.13;77.10;98151.59;4211757;28;20974;-80
2022/08/03 02:11:06;;;;;;;5.53;5.03;;;;;;;20.11;76.55;98158.03;4207817;28;20627;-80
2022/08/03 02:13:10;;;;;;;6.20;5.70;;;;;;;20.07;77.38;98157.53;4223663;28;20659;-80
2022/08/03 02:15:15;;;;;;;6.93;5.90;;;;;;;19.99;78.42;98152.19;4203634;28;20647;-80
2022/08/03 02:17:20;;;;;;;6.40;5.80;;;;;;;19.93;78.81;98144.06;4222946;27;20622;-80
2022/08/03 02:19:42;;;;;;;6.70;6.00;;;;;;;19.88;77.91;98149.84;4191551;28;20639;-80
2022/08/03 02:21:46;;;;;;;6.77;6.07;;;;;;;19.87;78.33;98150.84;4209801;28;20650;-80
2022/08/03 02:24:04;;;;;;;6.40;5.70;;;;;;;19.85;79.51;98146.66;4213531;28;20661;-81
2022/08/03 02:26:12;;;;;;;6.50;5.83;;;;;;;19.83;79.08;98139.88;4203756;28;20683;-80
2022/08/03 02:28:17;;;;;;;6.83;5.60;;;;;;;19.82;78.70;98148.81;4203938;28;20646;-80
2022/08/03 02:30:21;;;;;;;6.50;5.90;;;;;;;19.81;79.06;98153.25;4205772;28;20655;-80
2022/08/03 02:32:30;;;;;;;7.40;6.40;;;;;;;19.82;78.55;98146.16;4203775;28;20620;-80
2022/08/03 02:34:35;;;;;;;8.37;5.93;;;;;;;19.83;78.97;98145.16;4215616;27;20626;-80
2022/08/03 02:36:39;;;;;;;6.13;5.63;;;;;;;19.82;79.76;98146.16;4204003;28;20630;-80
2022/08/03 02:38:44;;;;;;;6.87;6.17;;;;;;;19.78;79.79;98140.34;4206051;28;20727;-80
2022/08/03 02:40:49;;;;;;;6.37;5.60;;;;;;;19.78;79.44;98147.47;4204161;28;21196;-80
2022/08/03 02:42:56;;;;;;;6.17;5.57;;;;;;;19.78;78.39;98145.63;4189091;28;20616;-80
2022/08/03 02:45:02;;;;;;;7.57;6.30;;;;;;;19.79;78.84;98138.53;4191100;28;20638;-80
2022/08/03 02:47:08;;;;;;;6.20;5.60;;;;;;;19.78;79.21;98140.34;4203301;28;20729;-80
2022/08/03 02:49:14;;;;;;;6.90;6.03;;;;;;;19.80;79.50;98140.19;4190811;28;20622;-80
2022/08/03 02:51:39;;;;;;;5.97;5.37;;;;;;;19.79;79.41;98142.00;4223229;28;20721;-80
2022/08/03 02:53:42;;;;;;;6.50;5.90;;;;;;;19.75;78.20;98140.66;4206990;28;21002;-81
2022/08/03 02:55:46;;;;;;;6.13;5.53;;;;;;;19.68;78.77;98139.66;4217424;27;20641;-80
2022/08/03 02:57:50;;;;;;;8.13;5.80;;;;;;;19.67;78.90;98148.56;4220097;28;20652;-80
2022/08/03 02:59:54;;;;;;;6.47;5.80;;;;;;;19.65;80.07;98152.38;4206493;28;20637;-80
2022/08/03 03:02:00;;;;;;;6.80;6.10;;;;;;;19.62;80.27;98147.38;4203616;28;20638;-80
2022/08/03 03:04:03;;;;;;;9.00;7.00;;;;;;;19.60;78.94;98147.53;4203187;28;20642;-80
2022/08/03 03:06:12;;;;;;;7.20;6.50;;;;;;;19.55;79.33;98149.84;4203767;28;20679;-80
2022/08/03 03:08:18;;;;;;;8.10;6.27;;;;;;;19.53;80.61;98148.34;4224528;28;20642;-80
2022/08/03 03:10:27;;;;;;;6.63;5.93;;;;;;;19.51;80.59;98147.69;4205831;28;20630;-80
2022/08/03 03:12:31;;;;;;;6.77;6.07;;;;;;;19.49;80.13;98149.66;4204258;28;20639;-80
2022/08/03 03:14:34;;;;;;;9.60;6.47;;;;;;;19.46;80.04;98142.84;4216623;28;21227;-80
2022/08/03 03:16:38;;;;;;;6.67;6.07;;;;;;;19.46;80.26;98148.16;4222466;28;20658;-80
2022/08/03 03:18:43;;;;;;;6.40;5.77;;;;;;;19.43;79.15;98147.66;4206694;28;20962;-81
2022/08/03 03:20:46;;;;;;;7.40;5.57;;;;;;;19.40;79.18;98140.03;4192884;28;20660;-80
2022/08/03 03:22:51;;;;;;;6.70;6.00;;;;;;;19.35;80.26;98141.47;4204934;28;20699;-80
2022/08/03 03:24:55;;;;;;;6.70;6.00;;;;;;;19.32;80.01;98141.78;4206243;28;20635;-80
2022/08/03 03:27:00;;;;;;;6.33;5.80;;;;;;;19.33;79.42;98143.44;4213228;28;20668;-80
2022/08/03 03:29:04;;;;;;;6.33;5.83;;;;;;;19.33;80.51;98140.81;4219810;28;20637;-80
2022/08/03 03:31:08;;;;;;;6.20;5.60;;;;;;;19.34;79.92;98145.13;4220383;28;20656;-80
2022/08/03 03:33:11;;;;;;;7.40;6.70;;;;;;;19.34;79.92;98145.13;4189436;28;20705;-80
2022/08/03 03:35:15;;;;;;;9.60;6.70;;;;;;;19.36;79.83;98145.78;4220825;28;20623;-80
2022/08/03 03:37:18;;;;;;;6.50;5.90;;;;;;;19.35;80.10;98144.13;4189081;28;21277;-80
2022/08/03 03:39:23;;;;;;;6.50;5.90;;;;;;;19.36;81.03;98143.97;4217357;28;20649;-80
2022/08/03 03:41:26;;;;;;;6.40;5.80;;;;;;;19.34;79.92;98148.59;4203780;28;20642;-80
2022/08/03 03:43:35;;;;;;;6.43;5.83;;;;;;;19.35;79.67;98147.63;4222241;28;20626;-80
2022/08/03 03:45:40;;;;;;;7.17;6.17;;;;;;;19.35;80.39;98141.47;4216942;27;20630;-80
2022/08/03 03:47:44;;;;;;;7.10;6.40;;;;;;;19.37;80.17;98142.16;4220254;27;20625;-80
2022/08/03 03:49:47;;;;;;;5.97;5.47;;;;;;;19.35;80.23;98142.31;4219515;28;20638;-80
2022/08/03 03:51:52;;;;;;;6.90;6.17;;;;;;;19.34;80.96;98143.28;4224055;28;20633;-80
2022/08/03 03:53:57;;;;;;;7.33;6.27;;;;;;;19.32;80.20;98140.00;4207214;28;21283;-80
2022/08/03 03:56:02;;;;;;;7.60;5.63;;;;;;;19.32;81.11;98134.69;4208362;28;20623;-81
2022/08/03 03:58:05;;;;;;;7.97;6.70;;;;;;;19.31;80.40;98140.16;4188512;28;20700;-80
2022/08/03 04:00:10;;;;;;;8.40;6.37;;;;;;;19.30;81.38;98138.47;4219630;28;23957;-81
2022/08/03 04:02:13;;;;;;;6.33;5.80;;;;;;;19.29;80.35;98142.09;4217065;28;20618;-82
2022/08/03 04:11:21;;;;;;;7.17;6.47;;;;;;;19.20;80.90;98143.88;4208684;28;20641;-80
2022/08/03 04:13:34;;;;;;;7.30;6.60;;;;;;;19.20;80.53;98151.81;4196194;28;21193;-80
2022/08/03 04:15:38;;;;;;;6.87;6.17;;;;;;;19.20;80.58;98149.16;4207556;28;20908;-80
2022/08/03 04:17:41;;;;;;;7.00;6.30;;;;;;;19.20;80.59;98150.97;4189782;28;20638;-80
2022/08/03 04:19:47;;;;;;;6.80;6.10;;;;;;;19.21;80.91;98161.38;4205644;28;20656;-80
2022/08/03 04:21:52;;;;;;;6.83;6.23;;;;;;;19.20;80.65;98150.97;4224984;28;20693;-80
2022/08/03 04:24:02;;;;;;;7.07;6.43;;;;;;;19.17;81.07;98154.78;4201295;28;21083;-80
2022/08/03 04:26:08;;;;;;;8.40;6.73;;;;;;;19.15;81.67;98162.00;4218557;28;20648;-81
2022/08/03 04:28:13;;;;;;;7.47;6.60;;;;;;;19.14;80.91;98159.53;4205647;28;21033;-80
2022/08/03 04:30:36;;;;;;;7.57;6.73;;;;;;;19.12;81.35;98146.47;4206619;28;20735;-79
2022/08/03 04:32:40;;;;;;;7.60;6.47;;;;;;;19.14;81.30;98149.78;4204820;28;20668;-80
2022/08/03 04:34:48;;;;;;;7.63;6.93;;;;;;;19.16;81.00;98157.56;4205608;28;20744;-81
2022/08/03 04:36:53;;;;;;;8.63;7.10;;;;;;;19.16;81.58;98153.09;4204948;28;20630;-83
2022/08/03 04:39:03;;;;;;;7.67;6.63;;;;;;;19.16;81.81;98149.63;4204797;28;20638;-80
2022/08/03 04:41:07;;;;;;;7.43;6.67;;;;;;;19.16;81.36;98162.88;4203650;28;20642;-83
2022/08/03 04:43:13;;;;;;;13.40;7.57;;;;;;;19.20;82.31;98153.63;4190717;28;20627;-80
2022/08/03 04:45:17;;;;;;;9.10;6.40;;;;;;;19.25;81.91;98154.81;4204944;28;21962;-80
2022/08/03 04:47:21;;;;;;;7.60;7.00;;;;;;;19.34;82.16;98168.94;4213932;28;20641;-81
2022/08/03 04:49:24;;;;;;;8.23;7.30;;;;;;;19.39;82.02;98168.31;4214555;28;20766;-81
2022/08/03 04:51:28;;;;;;;6.87;6.27;;;;;;;19.46;82.17;98173.78;4202097;28;20633;-80
2022/08/03 04:53:33;;;;;;;10.97;7.30;;;;;;;19.51;81.36;98177.59;4209150;28;20633;-81
2022/08/03 04:55:36;;;;;;;12.37;7.93;;;;;;;19.54;82.47;98173.81;4201158;28;20659;-83
2022/08/03 04:57:39;;;;;;;7.60;6.90;;;;;;;19.56;82.08;98174.47;4212490;28;20736;-83
2022/08/03 04:59:44;;;;;;;7.70;7.00;;;;;;;19.61;80.68;98180.97;4206799;28;20809;-83
2022/08/03 05:01:47;;;;;;;8.30;7.50;;;;;;;19.67;81.00;98176.88;4208028;28;21240;-84
2022/08/03 05:03:51;;;;;;;8.00;7.30;;;;;;;19.73;80.90;98185.00;4206169;28;20638;-83
2022/08/03 05:05:55;;;;;;;9.10;7.43;;;;;;;19.75;79.30;98172.44;4207561;28;20658;-83
2022/08/03 05:08:12;;;;;;;9.60;7.20;;;;;;;19.80;79.45;98180.75;4207352;28;20666;-83
2022/08/03 05:10:16;;;;;;;8.17;7.37;;;;;;;19.85;80.04;98183.75;4204787;28;20641;-83
2022/08/03 05:12:19;;;;;;;7.87;7.10;;;;;;;19.88;79.70;98173.69;4209816;28;21301;-83
2022/08/03 05:14:23;;;;;;;8.10;7.33;;;;;;;19.93;79.28;98178.50;4186156;28;20697;-83
2022/08/03 05:16:33;;;;;;;7.73;6.93;;;;;;;19.98;78.40;98177.03;4193103;28;20769;-83
2022/08/03 05:18:36;;;;;;;8.27;7.53;;;;;;;20.04;79.92;98180.84;4222956;28;20674;-83
2022/08/03 05:20:39;;;;;;;7.50;6.80;;;;;;;20.07;78.35;98191.97;4190004;28;21286;-84
2022/08/03 05:22:42;;;;;;;8.03;7.27;;;;;;;20.14;79.45;98187.66;4204141;28;20664;-86
2022/08/03 05:24:46;;;;;;;8.23;7.13;;;;;;;20.21;79.61;98193.16;4200517;28;20771;-83
2022/08/03 05:26:49;;;;;;;7.87;7.13;;;;;;;20.24;79.16;98187.56;4202580;28;20631;-83
2022/08/03 05:28:52;;;;;;;8.47;7.47;;;;;;;20.29;79.30;98196.66;4190407;28;21291;-84
2022/08/03 05:30:55;;;;;;;7.90;7.10;;;;;;;20.36;79.43;98195.03;4209398;28;20638;-84
2022/08/03 05:33:00;;;;;;;8.47;7.60;;;;;;;20.44;79.89;98195.03;4191435;28;20642;-83
2022/08/03 05:35:03;;;;;;;8.50;7.70;;;;;;;20.52;79.34;98195.03;4215856;28;20764;-83
2022/08/03 05:37:26;;;;;;;10.77;7.70;;;;;;;20.68;78.38;98201.22;4209689;28;20718;-84
2022/08/03 05:39:29;;;;;;;8.17;7.37;;;;;;;20.87;76.95;98199.09;4198510;28;20636;-84
2022/08/03 05:41:32;;;;;;;8.23;7.43;;;;;;;21.15;77.37;98204.88;4206691;28;20727;-84
2022/08/03 05:43:39;;;;;;;8.50;7.60;;;;;;;21.46;78.10;98198.75;4209384;28;20671;-84
2022/08/03 05:45:43;;;;;;;8.87;6.93;;;;;;;21.78;77.04;98202.97;4205267;28;20627;-83
2022/08/03 05:47:46;;;;;;;9.80;6.83;;;;;;;22.09;75.39;98203.00;4196919;28;21231;-83
2022/08/03 05:49:51;;;;;;;7.60;6.90;;;;;;;22.41;74.25;98209.00;4195157;28;21079;-83
2022/08/03 05:51:54;;;;;;;7.37;6.63;;;;;;;22.67;72.62;98209.50;4208148;28;20728;-83
2022/08/03 05:54:17;;;;;;;7.20;6.13;;;;;;;22.97;71.66;98206.81;4208037;28;20752;-83
2022/08/03 05:56:23;;;;;;;7.10;6.40;;;;;;;23.20;70.90;98208.47;4224511;28;20672;-84
2022/08/03 05:58:26;;;;;;;8.10;6.50;;;;;;;23.47;70.77;98211.38;4232893;27;20695;-84
2022/08/03 06:00:32;;;;;;;6.90;6.30;;;;;;;23.72;69.01;98210.97;4211929;28;20656;-84
2022/08/03 06:02:35;;;;;;;7.17;6.47;;;;;;;23.97;69.39;98216.84;4191069;28;21095;-84
2022/08/03 06:04:38;;;;;;;6.70;6.10;;;;;;;24.18;68.18;98207.91;4189024;28;20626;-84
2022/08/03 06:06:43;;;;;;;7.37;6.67;;;;;;;24.34;68.50;98210.41;4192055;28;21227;-84
2022/08/03 06:08:47;;;;;;;8.47;6.60;;;;;;;24.55;67.62;98215.78;4211057;28;21079;-84
2022/08/03 06:10:50;;;;;;;6.77;6.17;;;;;;;24.81;67.80;98221.41;4212054;28;20644;-83
2022/08/03 06:12:54;;;;;;;6.80;6.10;;;;;;;25.07;67.21;98216.34;4209202;28;20681;-82
2022/08/03 06:14:57;;;;;;;6.80;6.07;;;;;;;25.31;65.78;98220.25;4213694;28;20644;-84
2022/08/03 06:17:00;;;;;;;7.00;6.30;;;;;;;25.45;65.18;98216.66;4211630;28;20727;-84
2022/08/03 06:19:03;;;;;;;7.03;6.27;;;;;;;25.58;64.83;98206.06;4207019;28;20696;-84
2022/08/03 06:21:06;;;;;;;5.83;5.33;;;;;;;25.75;64.39;98212.78;4189418;28;20628;-84
2022/08/03 06:23:18;;;;;;;5.73;5.23;;;;;;;25.86;63.76;98214.91;4199592;28;20892;-83
2022/08/03 06:25:21;;;;;;;5.67;5.17;;;;;;;26.00;63.65;98220.16;4210731;28;21189;-84
2022/08/03 06:27:25;;;;;;;7.83;5.47;;;;;;;26.17;62.41;98216.94;4213220;28;21039;-84
2022/08/03 06:29:39;;;;;;;5.83;5.23;;;;;;;26.29;62.20;98211.88;4225540;27;21226;-85
2022/08/03 06:31:42;;;;;;;13.80;5.97;;;;;;;26.45;61.65;98212.38;4192946;28;20641;-85
2022/08/03 06:33:45;;;;;;;6.77;5.20;;;;;;;26.59;60.98;98209.53;4197782;28;20622;-85
2022/08/03 06:36:09;;;;;;;6.60;6.00;;;;;;;26.76;62.42;98218.03;4214163;28;21221;-85
2022/08/03 06:38:14;;;;;;;8.03;5.60;;;;;;;26.94;62.18;98207.59;4213712;28;20629;-86
2022/08/03 06:40:27;;;;;;;5.93;5.43;;;;;;;27.22;61.80;98214.44;4214228;28;20614;-85
2022/08/03 06:42:30;;;;;;;6.03;5.43;;;;;;;27.44;61.60;98227.44;4228511;27;21041;-85
2022/08/03 06:44:37;;;;;;;7.73;5.50;;;;;;;27.63;60.79;98218.56;4196343;28;20637;-85
2022/08/03 06:46:41;;;;;;;6.07;5.57;;;;;;;27.82;60.47;98220.41;4195585;28;20631;-85
2022/08/03 06:48:44;;;;;;;7.37;5.00;;;;;;;28.04;60.81;98218.09;4226763;27;20695;-85
2022/08/03 06:50:47;;;;;;;6.73;5.90;;;;;;;28.23;61.22;98222.59;4223418;27;20687;-83
2022/08/03 06:52:50;;;;;;;6.10;5.23;;;;;;;28.44;59.23;98219.63;4218720;27;20633;-83
2022/08/03 06:54:53;;;;;;;7.33;5.43;;;;;;;28.58;58.46;98223.91;4207614;28;20633;-83
2022/08/03 06:56:58;;;;;;;6.13;5.63;;;;;;;28.67;58.32;98217.28;4204259;28;21247;-83
2022/08/03 06:59:01;;;;;;;7.70;5.47;;;;;;;28.83;58.73;98228.34;4205674;28;21017;-85
2022/08/03 07:01:04;;;;;;;5.67;5.17;;;;;;;28.98;58.81;98220.81;4203593;28;20615;-85
2022/08/03 07:03:07;;;;;;;10.77;5.47;;;;;;;29.15;57.81;98233.53;4192156;28;20675;-86
2022/08/03 07:05:11;;;;;;;5.47;4.97;;;;;;;29.34;57.51;98227.22;4193110;28;20675;-84
2022/08/03 07:07:16;;;;;;;6.47;4.90;;;;;;;29.51;58.55;98228.31;4211286;28;20788;-84
2022/08/03 07:09:19;;;;;;;5.47;4.97;;;;;;;29.73;57.42;98229.56;4194483;28;20626;-84
2022/08/03 07:11:22;;;;;;;5.90;4.90;;;;;;;29.87;57.19;98226.56;4187523;28;20631;-84
2022/08/03 07:13:27;;;;;;;6.17;5.10;;;;;;;30.01;55.70;98230.78;4206020;28;20669;-84
2022/08/03 07:15:30;;;;;;;5.47;4.97;;;;;;;30.10;56.79;98224.03;4199976;28;20646;-84
2022/08/03 07:17:54;;;;;;;6.70;5.47;;;;;;;30.24;56.39;98222.88;4208394;28;20607;-84
2022/08/03 07:19:57;;;;;;;6.30;4.40;;;;;;;30.37;56.19;98220.88;4205183;28;20681;-84
2022/08/03 07:22:02;;;;;;;5.97;5.47;;;;;;;30.54;56.12;98221.91;4216821;28;20994;-84
2022/08/03 07:24:06;;;;;;;4.27;3.87;;;;;;;30.68;55.00;98224.19;4207603;28;21470;-84
2022/08/03 07:26:10;;;;;;;5.23;4.70;;;;;;;30.84;55.94;98220.03;4203114;28;20675;-84
2022/08/03 07:28:13;;;;;;;4.97;4.20;;;;;;;30.97;56.03;98215.31;4207309;28;21069;-84
2022/08/03 07:30:18;;;;;;;5.50;5.00;;;;;;;31.15;54.79;98221.50;4208010;28;20653;-84
2022/08/03 07:32:21;;;;;;;6.63;4.43;;;;;;;31.29;54.99;98222.94;4209193;28;20623;-84
2022/08/03 07:34:24;;;;;;;4.97;4.57;;;;;;;31.51;55.21;98221.34;4192614;28;20643;-84
2022/08/03 07:36:28;;;;;;;4.90;4.40;;;;;;;31.62;55.01;98223.22;4195452;28;20663;-84
2022/08/03 07:38:31;;;;;;;6.10;4.23;;;;;;;31.72;54.23;98218.09;4209094;28;20680;-84
2022/08/03 07:40:34;;;;;;;4.70;4.30;;;;;;;31.82;53.57;98212.94;4202554;28;20636;-84
2022/08/03 07:42:37;;;;;;;4.80;4.40;;;;;;;31.85;54.37;98215.16;4223283;27;21534;-84
2022/08/03 07:44:40;;;;;;;5.10;4.60;;;;;;;31.92;54.51;98216.72;4189069;28;20639;-84
2022/08/03 07:46:45;;;;;;;4.97;4.47;;;;;;;32.08;54.23;98214.09;4199061;28;20631;-84
2022/08/03 07:48:48;;;;;;;5.00;4.60;;;;;;;32.18;53.47;98214.34;4192529;28;20722;-84
2022/08/03 07:50:51;;;;;;;6.60;4.33;;;;;;;32.20;53.18;98209.50;4204009;28;20709;-85
2022/08/03 07:52:56;;;;;;;4.80;4.20;;;;;;;32.27;53.38;98212.09;4192823;28;22552;-85
2022/08/03 07:54:59;;;;;;;4.07;3.77;;;;;;;32.36;53.67;98203.38;4220518;28;20645;-86
2022/08/03 07:57:02;;;;;;;4.57;4.17;;;;;;;32.48;54.63;98201.50;4203282;28;21099;-86
2022/08/03 07:59:06;;;;;;;4.43;4.03;;;;;;;32.65;53.53;98205.91;4207475;28;20637;-86
2022/08/03 08:01:09;;;;;;;3.90;3.50;;;;;;;32.82;53.77;98212.19;4190761;28;20646;-85
2022/08/03 08:03:18;;;;;;;3.40;3.10;;;;;;;33.15;52.61;98206.88;4222768;27;20641;-85
2022/08/03 08:05:21;;;;;;;5.53;3.20;;;;;;;33.44;52.49;98206.63;4190893;28;20632;-85
2022/08/03 08:07:25;;;;;;;5.43;2.90;;;;;;;33.69;51.12;98204.31;4189846;28;20675;-85
2022/08/03 08:09:28;;;;;;;2.90;2.70;;;;;;;33.82;50.52;98207.50;4204177;28;21245;-86
2022/08/03 08:11:31;;;;;;;3.20;2.70;;;;;;;33.89;50.17;98198.16;4222868;28;20724;-85
2022/08/03 08:13:40;;;;;;;4.47;3.20;;;;;;;34.02;50.21;98194.28;4224711;28;20695;-85
2022/08/03 08:15:43;;;;;;;2.87;2.67;;;;;;;34.12;50.32;98205.28;4203465;28;21049;-85
2022/08/03 08:17:52;;;;;;;5.17;2.57;;;;;;;34.25;50.61;98200.31;4216726;28;21270;-84
2022/08/03 08:19:57;;;;;;;4.10;2.93;;;;;;;34.40;50.32;98203.25;4204584;28;20671;-85
2022/08/03 08:22:01;;;;;;;2.70;2.50;;;;;;;34.42;48.71;98199.22;4194100;28;20632;-85
2022/08/03 08:24:06;;;;;;;3.73;2.50;;;;;;;34.57;49.06;98198.59;4199631;28;20683;-85
2022/08/03 08:26:21;;;;;;;6.57;5.83;;;;;;;34.63;49.23;98194.88;4222214;27;20629;-85
2022/08/03 08:28:24;;;;;;;2.70;2.30;;;;;;;34.80;48.15;98199.13;4216907;27;20641;-83
2022/08/03 08:30:35;;;;;;;4.77;2.37;;;;;;;34.93;48.25;98199.56;4208961;28;20662;-83
2022/08/03 08:32:38;;;;;;;3.40;2.40;;;;;;;35.07;48.11;98195.38;4212513;28;20625;-83
2022/08/03 08:34:41;;;;;;;6.43;3.07;;;;;;;35.21;47.76;98201.22;4193839;28;21258;-83
2022/08/03 08:36:46;;;;;;;4.20;2.67;;;;;;;35.31;48.62;98204.84;4190374;28;20660;-83
2022/08/03 08:38:50;;;;;;;2.50;2.00;;;;;;;35.41;47.07;98192.22;4211392;28;20668;-83
2022/08/03 08:40:55;;;;;;;2.47;2.27;;;;;;;35.39;45.94;98197.09;4223805;27;20991;-84
2022/08/03 08:42:58;;;;;;;4.33;3.77;;;;;;;35.41;46.71;98196.84;4208392;28;21057;-84
2022/08/03 08:45:04;;;;;;;3.60;2.40;;;;;;;35.42;46.73;98198.44;4209147;28;20642;-84
2022/08/03 08:47:08;;;;;;;2.83;2.60;;;;;;;35.48;46.32;98195.50;4220365;28;20621;-84
2022/08/03 08:49:12;;;;;;;7.63;2.80;;;;;;;35.42;47.57;98193.84;4208979;28;20648;-84
2022/08/03 08:51:17;;;;;;;2.70;2.20;;;;;;;35.54;46.44;98189.03;4192931;28;20671;-83
2022/08/03 08:53:21;;;;;;;3.00;2.37;;;;;;;35.64;46.41;98191.84;4197387;28;20694;-84
2022/08/03 08:55:29;;;;;;;3.80;2.50;;;;;;;35.72;45.79;98196.78;4209306;28;20627;-84
2022/08/03 08:57:58;;;;;;;3.60;2.23;;;;;;;35.81;45.57;98193.38;4228910;27;20654;-84
2022/08/03 09:00:02;;;;;;;2.60;2.30;;;;;;;35.84;45.31;98187.44;4210665;28;20638;-83
2022/08/03 09:02:05;;;;;;;2.70;2.40;;;;;;;35.85;44.98;98183.59;4205354;28;20661;-84
2022/08/03 09:04:08;;;;;;;3.07;2.33;;;;;;;35.84;45.09;98186.59;4190934;28;20627;-83
2022/08/03 09:06:11;;;;;;;2.73;2.53;;;;;;;35.88;45.57;98183.09;4203515;28;20674;-83
2022/08/03 09:08:15;;;;;;;6.27;2.40;;;;;;;35.93;44.83;98190.44;4198246;28;20673;-83
2022/08/03 09:10:20;;;;;;;3.03;2.43;;;;;;;35.99;45.14;98192.94;4210966;28;21245;-84
2022/08/03 09:12:24;;;;;;;3.73;3.40;;;;;;;36.04;45.93;98184.81;4216592;28;20631;-83
2022/08/03 09:14:44;;;;;;;3.20;2.60;;;;;;;36.03;45.38;98185.91;4194131;28;20770;-83
2022/08/03 09:17:08;;;;;;;2.40;2.10;;;;;;;36.08;45.94;98180.47;4190444;28;20709;-84
2022/08/03 09:19:19;;;;;;;3.10;2.30;;;;;;;36.14;45.83;98187.59;4207854;28;21240;-83
2022/08/03 09:21:23;;;;;;;2.60;2.20;;;;;;;36.18;44.81;98190.63;4207448;28;20630;-83
2022/08/03 09:23:44;;;;;;;2.90;2.70;;;;;;;36.19;45.79;98184.91;4211639;28;21273;-84
2022/08/03 09:26:06;;;;;;;8.10;2.90;;;;;;;36.19;44.47;98179.47;4203967;28;20627;-83
2022/08/03 09:28:14;;;;;;;2.83;2.50;;;;;;;36.18;45.19;98177.03;4205240;28;20669;-84
2022/08/03 09:30:39;;;;;;;2.53;2.30;;;;;;;36.16;44.99;98182.72;4209879;28;20615;-84
2022/08/03 09:32:43;;;;;;;2.40;2.20;;;;;;;36.20;45.42;98180.28;4195349;28;20620;-84
2022/08/03 09:34:48;;;;;;;2.90;2.60;;;;;;;36.15;45.01;98181.06;4194103;28;20722;-84
2022/08/03 09:36:52;;;;;;;3.00;2.60;;;;;;;36.12;45.12;98178.88;4207641;28;20627;-84
2022/08/03 09:39:03;;;;;;;3.60;2.70;;;;;;;36.08;43.69;98169.59;4218291;27;22151;-84
2022/08/03 09:41:17;;;;;;;4.23;2.53;;;;;;;36.08;44.88;98177.75;4192973;28;20726;-84
2022/08/03 09:43:21;;;;;;;2.60;2.40;;;;;;;36.07;45.43;98176.16;4205184;28;20643;-83
2022/08/03 09:45:28;;;;;;;4.57;2.80;;;;;;;36.18;45.75;98179.75;4204805;28;21265;-84
2022/08/03 09:47:35;;;;;;;3.10;2.53;;;;;;;36.13;44.74;98177.81;4224145;27;21096;-84
2022/08/03 09:49:40;;;;;;;3.17;2.77;;;;;;;36.16;45.34;98176.44;4196181;28;20643;-84
2022/08/03 09:51:44;;;;;;;3.30;3.00;;;;;;;36.24;45.11;98187.66;4195733;28;20636;-84
2022/08/03 09:54:07;;;;;;;2.90;2.70;;;;;;;36.23;44.96;98172.41;4194813;28;20637;-84
2022/08/03 09:56:22;;;;;;;2.83;2.63;;;;;;;36.09;44.77;98168.53;4209811;28;20652;-83
2022/08/03 09:58:45;;;;;;;3.70;2.90;;;;;;;36.06;45.27;98168.25;4206926;28;21023;-84
2022/08/03 10:00:57;;;;;;;3.07;2.77;;;;;;;36.08;46.25;98161.44;4206947;28;20638;-84
2022/08/03 10:03:04;;;;;;;2.80;2.60;;;;;;;36.06;44.46;98157.38;4221089;28;20634;-84